sensor_id;sensor_type;location;lat;lon;timestamp;pressure;altitude;pressure_sealevel;temperature;humidity
65013;BME280;51715;39.432;-77.518;2022-08-14T00:01:55;99803.03;;;27.53;30.30
65013;BME280;51715;39.432;-77.518;2022-08-14T00:04:24;99804.49;;;27.39;31.00
65013;BME280;51715;39.432;-77.518;2022-08-14T00:06:52;99805.34;;;27.39;30.47
65013;BME280;51715;39.432;-77.518;2022-08-14T00:09:20;99808.49;;;27.36;30.44
65013;BME280;51715;39.432;-77.518;2022-08-14T00:11:48;99813.84;;;27.24;30.82
65013;BME280;51715;39.432;-77.518;2022-08-14T00:14:17;99811.96;;;27.15;30.92
65013;BME280;51715;39.432;-77.518;2022-08-14T00:16:47;99813.87;;;27.17;31.03
65013;BME280;51715;39.432;-77.518;2022-08-14T00:19:15;99813.39;;;26.88;31.10
65013;BME280;51715;39.432;-77.518;2022-08-14T00:21:43;99806.57;;;26.67;31.40
65013;BME280;51715;39.432;-77.518;2022-08-14T00:24:12;99801.40;;;26.97;31.95
65013;BME280;51715;39.432;-77.518;2022-08-14T00:26:41;99799.18;;;26.72;32.36
65013;BME280;51715;39.432;-77.518;2022-08-14T00:29:09;99803.30;;;26.24;32.96
65013;BME280;51715;39.432;-77.518;2022-08-14T00:31:38;99808.59;;;26.70;32.72
65013;BME280;51715;39.432;-77.518;2022-08-14T00:34:06;99808.30;;;26.14;32.54
65013;BME280;51715;39.432;-77.518;2022-08-14T00:36:34;99806.31;;;25.74;33.49
65013;BME280;51715;39.432;-77.518;2022-08-14T00:39:03;99804.96;;;25.79;33.37
65013;BME280;51715;39.432;-77.518;2022-08-14T00:41:32;99803.78;;;25.78;33.38
65013;BME280;51715;39.432;-77.518;2022-08-14T00:44:00;99806.28;;;25.70;33.43
65013;BME280;51715;39.432;-77.518;2022-08-14T00:46:28;99807.99;;;25.71;33.32
65013;BME280;51715;39.432;-77.518;2022-08-14T00:48:56;99806.11;;;25.70;33.66
65013;BME280;51715;39.432;-77.518;2022-08-14T00:51:25;99809.67;;;25.71;33.57
65013;BME280;51715;39.432;-77.518;2022-08-14T00:53:53;99811.29;;;25.67;33.86
65013;BME280;51715;39.432;-77.518;2022-08-14T00:56:22;99811.12;;;25.52;34.04
65013;BME280;51715;39.432;-77.518;2022-08-14T00:58:51;99816.01;;;25.22;34.09
65013;BME280;51715;39.432;-77.518;2022-08-14T01:01:18;99817.66;;;25.78;34.38
65013;BME280;51715;39.432;-77.518;2022-08-14T01:03:47;99822.05;;;25.49;34.34
65013;BME280;51715;39.432;-77.518;2022-08-14T01:06:15;99826.65;;;25.17;34.45
65013;BME280;51715;39.432;-77.518;2022-08-14T01:08:44;99826.74;;;25.41;34.44
65013;BME280;51715;39.432;-77.518;2022-08-14T01:11:13;99826.66;;;25.35;34.32
65013;BME280;51715;39.432;-77.518;2022-08-14T01:13:43;99828.48;;;24.54;34.66
65013;BME280;51715;39.432;-77.518;2022-08-14T01:16:15;99831.61;;;24.94;34.88
65013;BME280;51715;39.432;-77.518;2022-08-14T01:18:43;99832.14;;;24.89;34.97
65013;BME280;51715;39.432;-77.518;2022-08-14T01:21:12;99832.54;;;24.74;34.43
65013;BME280;51715;39.432;-77.518;2022-08-14T01:23:42;99830.86;;;24.73;34.33
65013;BME280;51715;39.432;-77.518;2022-08-14T01:26:11;99833.49;;;24.70;34.47
65013;BME280;51715;39.432;-77.518;2022-08-14T01:28:41;99832.84;;;24.55;34.68
65013;BME280;51715;39.432;-77.518;2022-08-14T01:31:12;99833.44;;;24.54;34.60
65013;BME280;51715;39.432;-77.518;2022-08-14T01:33:42;99836.35;;;24.53;34.90
65013;BME280;51715;39.432;-77.518;2022-08-14T01:36:12;99837.55;;;24.53;35.15
65013;BME280;51715;39.432;-77.518;2022-08-14T01:38:42;99838.93;;;24.48;35.55
65013;BME280;51715;39.432;-77.518;2022-08-14T01:41:14;99836.79;;;24.16;35.27
65013;BME280;51715;39.432;-77.518;2022-08-14T01:43:45;99839.92;;;24.28;35.23
65013;BME280;51715;39.432;-77.518;2022-08-14T01:46:14;99837.94;;;24.33;35.81
65013;BME280;51715;39.432;-77.518;2022-08-14T01:48:44;99831.83;;;24.11;35.78
65013;BME280;51715;39.432;-77.518;2022-08-14T01:51:14;99826.57;;;24.31;35.59
65013;BME280;51715;39.432;-77.518;2022-08-14T01:53:45;99825.60;;;24.02;35.69
65013;BME280;51715;39.432;-77.518;2022-08-14T01:56:17;99828.77;;;24.22;35.82
65013;BME280;51715;39.432;-77.518;2022-08-14T01:58:46;99832.35;;;24.32;36.01
65013;BME280;51715;39.432;-77.518;2022-08-14T02:01:15;99834.74;;;24.15;36.12
65013;BME280;51715;39.432;-77.518;2022-08-14T02:03:44;99831.80;;;24.00;36.48
65013;BME280;51715;39.432;-77.518;2022-08-14T02:06:12;99825.52;;;23.93;36.55
65013;BME280;51715;39.432;-77.518;2022-08-14T02:08:41;99828.70;;;23.82;36.15
65013;BME280;51715;39.432;-77.518;2022-08-14T02:11:11;99834.19;;;23.46;36.26
65013;BME280;51715;39.432;-77.518;2022-08-14T02:13:39;99837.29;;;23.69;36.38
65013;BME280;51715;39.432;-77.518;2022-08-14T02:16:07;99835.66;;;23.71;36.39
65013;BME280;51715;39.432;-77.518;2022-08-14T02:18:36;99835.94;;;23.69;36.64
65013;BME280;51715;39.432;-77.518;2022-08-14T02:21:05;99832.91;;;23.69;36.71
65013;BME280;51715;39.432;-77.518;2022-08-14T02:23:33;99834.60;;;23.43;36.94
65013;BME280;51715;39.432;-77.518;2022-08-14T02:26:12;99833.30;;;22.95;37.01
65013;BME280;51715;39.432;-77.518;2022-08-14T02:28:40;99834.50;;;23.35;37.59
65013;BME280;51715;39.432;-77.518;2022-08-14T02:31:08;99834.68;;;22.70;37.97
65013;BME280;51715;39.432;-77.518;2022-08-14T02:33:37;99832.91;;;22.82;38.17
65013;BME280;51715;39.432;-77.518;2022-08-14T02:36:06;99830.17;;;22.70;38.36
65013;BME280;51715;39.432;-77.518;2022-08-14T02:38:34;99835.95;;;22.42;38.61
65013;BME280;51715;39.432;-77.518;2022-08-14T02:41:04;99838.23;;;22.52;38.51
65013;BME280;51715;39.432;-77.518;2022-08-14T02:43:32;99839.16;;;22.31;38.65
65013;BME280;51715;39.432;-77.518;2022-08-14T02:46:00;99835.28;;;22.93;38.53
65013;BME280;51715;39.432;-77.518;2022-08-14T02:48:29;99832.91;;;22.61;38.53
65013;BME280;51715;39.432;-77.518;2022-08-14T02:50:57;99831.84;;;22.26;38.27
65013;BME280;51715;39.432;-77.518;2022-08-14T02:53:26;99830.62;;;22.82;37.97
65013;BME280;51715;39.432;-77.518;2022-08-14T02:55:54;99832.60;;;22.78;38.20
65013;BME280;51715;39.432;-77.518;2022-08-14T02:58:23;99833.58;;;22.27;38.19
65013;BME280;51715;39.432;-77.518;2022-08-14T03:00:51;99833.84;;;22.69;38.48
65013;BME280;51715;39.432;-77.518;2022-08-14T03:03:20;99831.64;;;22.48;38.79
65013;BME280;51715;39.432;-77.518;2022-08-14T03:05:49;99833.22;;;22.66;38.78
65013;BME280;51715;39.432;-77.518;2022-08-14T03:08:18;99840.96;;;22.60;39.17
65013;BME280;51715;39.432;-77.518;2022-08-14T03:10:46;99844.15;;;22.56;39.32
65013;BME280;51715;39.432;-77.518;2022-08-14T03:13:15;99847.59;;;22.45;39.47
65013;BME280;51715;39.432;-77.518;2022-08-14T03:15:43;99849.45;;;22.14;39.24
65013;BME280;51715;39.432;-77.518;2022-08-14T03:18:12;99848.77;;;22.44;39.31
65013;BME280;51715;39.432;-77.518;2022-08-14T03:20:41;99843.49;;;22.47;39.12
65013;BME280;51715;39.432;-77.518;2022-08-14T03:23:09;99842.97;;;22.53;39.17
65013;BME280;51715;39.432;-77.518;2022-08-14T03:25:38;99839.20;;;22.61;39.16
65013;BME280;51715;39.432;-77.518;2022-08-14T03:28:07;99838.41;;;22.65;39.32
65013;BME280;51715;39.432;-77.518;2022-08-14T03:30:36;99834.16;;;22.65;38.90
65013;BME280;51715;39.432;-77.518;2022-08-14T03:33:05;99834.07;;;22.44;38.93
65013;BME280;51715;39.432;-77.518;2022-08-14T03:35:33;99832.25;;;22.67;38.76
65013;BME280;51715;39.432;-77.518;2022-08-14T03:38:06;99831.38;;;22.59;38.65
65013;BME280;51715;39.432;-77.518;2022-08-14T03:40:35;99833.70;;;22.51;38.83
65013;BME280;51715;39.432;-77.518;2022-08-14T03:43:04;99835.74;;;22.53;38.94
65013;BME280;51715;39.432;-77.518;2022-08-14T03:45:34;99839.05;;;22.78;39.12
65013;BME280;51715;39.432;-77.518;2022-08-14T03:48:08;99841.17;;;22.58;39.07
65013;BME280;51715;39.432;-77.518;2022-08-14T03:50:37;99836.39;;;22.59;39.20
65013;BME280;51715;39.432;-77.518;2022-08-14T03:53:05;99834.51;;;22.51;39.68
65013;BME280;51715;39.432;-77.518;2022-08-14T03:55:34;99837.24;;;22.58;39.71
65013;BME280;51715;39.432;-77.518;2022-08-14T03:58:03;99842.03;;;22.78;39.49
65013;BME280;51715;39.432;-77.518;2022-08-14T04:03:55;99846.91;;;22.70;38.86
65013;BME280;51715;39.432;-77.518;2022-08-14T04:06:23;99845.79;;;22.78;38.32
65013;BME280;51715;39.432;-77.518;2022-08-14T04:08:53;99842.53;;;22.82;38.15
65013;BME280;51715;39.432;-77.518;2022-08-14T04:11:23;99844.92;;;22.81;38.39
65013;BME280;51715;39.432;-77.518;2022-08-14T04:13:51;99842.38;;;23.00;38.89
65013;BME280;51715;39.432;-77.518;2022-08-14T04:16:21;99841.86;;;23.07;38.88
65013;BME280;51715;39.432;-77.518;2022-08-14T04:18:50;99839.39;;;22.75;39.40
65013;BME280;51715;39.432;-77.518;2022-08-14T04:21:21;99839.30;;;22.91;39.34
65013;BME280;51715;39.432;-77.518;2022-08-14T04:23:54;99836.89;;;22.78;40.23
65013;BME280;51715;39.432;-77.518;2022-08-14T04:26:24;99835.06;;;22.50;40.07
65013;BME280;51715;39.432;-77.518;2022-08-14T04:28:53;99831.80;;;22.83;40.25
65013;BME280;51715;39.432;-77.518;2022-08-14T04:31:24;99831.36;;;22.54;40.13
65013;BME280;51715;39.432;-77.518;2022-08-14T04:33:52;99831.35;;;22.71;40.41
65013;BME280;51715;39.432;-77.518;2022-08-14T04:36:21;99831.67;;;22.71;40.67
65013;BME280;51715;39.432;-77.518;2022-08-14T04:38:50;99834.12;;;22.30;40.48
65013;BME280;51715;39.432;-77.518;2022-08-14T04:41:18;99837.78;;;22.76;40.08
65013;BME280;51715;39.432;-77.518;2022-08-14T04:43:46;99838.82;;;22.57;39.83
65013;BME280;51715;39.432;-77.518;2022-08-14T04:46:19;99840.77;;;22.84;39.65
65013;BME280;51715;39.432;-77.518;2022-08-14T04:48:48;99844.75;;;22.43;39.51
65013;BME280;51715;39.432;-77.518;2022-08-14T04:51:18;99845.30;;;22.62;39.51
65013;BME280;51715;39.432;-77.518;2022-08-14T04:53:48;99842.79;;;22.56;39.67
65013;BME280;51715;39.432;-77.518;2022-08-14T04:56:18;99846.64;;;22.33;40.28
65013;BME280;51715;39.432;-77.518;2022-08-14T04:58:47;99855.41;;;22.39;40.52
65013;BME280;51715;39.432;-77.518;2022-08-14T05:01:16;99856.89;;;22.16;41.45
65013;BME280;51715;39.432;-77.518;2022-08-14T05:03:45;99856.04;;;21.97;41.51
65013;BME280;51715;39.432;-77.518;2022-08-14T05:06:13;99857.21;;;22.11;41.69
65013;BME280;51715;39.432;-77.518;2022-08-14T05:08:42;99857.17;;;22.16;41.20
65013;BME280;51715;39.432;-77.518;2022-08-14T05:11:10;99856.60;;;22.21;40.80
65013;BME280;51715;39.432;-77.518;2022-08-14T05:13:38;99854.68;;;22.10;41.04
65013;BME280;51715;39.432;-77.518;2022-08-14T05:16:07;99857.50;;;22.49;40.75
65013;BME280;51715;39.432;-77.518;2022-08-14T05:18:36;99858.92;;;22.50;40.87
65013;BME280;51715;39.432;-77.518;2022-08-14T05:21:07;99858.19;;;22.31;40.76
65013;BME280;51715;39.432;-77.518;2022-08-14T05:23:38;99852.79;;;22.35;40.81
65013;BME280;51715;39.432;-77.518;2022-08-14T05:26:07;99848.33;;;22.59;40.62
65013;BME280;51715;39.432;-77.518;2022-08-14T05:28:35;99844.83;;;22.56;40.89
65013;BME280;51715;39.432;-77.518;2022-08-14T05:31:05;99837.59;;;22.57;40.97
65013;BME280;51715;39.432;-77.518;2022-08-14T05:33:34;99833.97;;;22.54;40.82
65013;BME280;51715;39.432;-77.518;2022-08-14T05:36:06;99829.68;;;22.43;41.25
65013;BME280;51715;39.432;-77.518;2022-08-14T05:38:37;99825.96;;;22.31;41.33
65013;BME280;51715;39.432;-77.518;2022-08-14T05:41:08;99820.92;;;22.40;42.03
65013;BME280;51715;39.432;-77.518;2022-08-14T05:43:37;99812.47;;;22.46;42.03
65013;BME280;51715;39.432;-77.518;2022-08-14T05:46:08;99806.40;;;22.49;41.59
65013;BME280;51715;39.432;-77.518;2022-08-14T05:48:36;99799.72;;;22.32;41.67
65013;BME280;51715;39.432;-77.518;2022-08-14T05:51:04;99798.64;;;22.18;41.73
65013;BME280;51715;39.432;-77.518;2022-08-14T05:53:32;99792.83;;;22.24;41.57
65013;BME280;51715;39.432;-77.518;2022-08-14T05:56:01;99792.77;;;22.34;41.60
65013;BME280;51715;39.432;-77.518;2022-08-14T05:58:29;99790.93;;;22.20;41.67
65013;BME280;51715;39.432;-77.518;2022-08-14T06:00:57;99793.78;;;22.17;41.91
65013;BME280;51715;39.432;-77.518;2022-08-14T06:03:24;99790.11;;;22.35;41.45
65013;BME280;51715;39.432;-77.518;2022-08-14T06:05:54;99789.88;;;22.30;41.18
65013;BME280;51715;39.432;-77.518;2022-08-14T06:08:24;99790.07;;;22.62;41.00
65013;BME280;51715;39.432;-77.518;2022-08-14T06:10:57;99789.95;;;22.72;40.99
65013;BME280;51715;39.432;-77.518;2022-08-14T06:13:25;99792.95;;;22.88;40.96
65013;BME280;51715;39.432;-77.518;2022-08-14T06:15:53;99796.32;;;22.50;40.63
65013;BME280;51715;39.432;-77.518;2022-08-14T06:18:21;99801.79;;;22.65;40.66
65013;BME280;51715;39.432;-77.518;2022-08-14T06:20:50;99806.01;;;22.67;40.95
65013;BME280;51715;39.432;-77.518;2022-08-14T06:23:19;99800.76;;;22.45;41.07
65013;BME280;51715;39.432;-77.518;2022-08-14T06:25:48;99797.63;;;22.34;41.84
65013;BME280;51715;39.432;-77.518;2022-08-14T06:28:18;99799.90;;;21.74;43.00
65013;BME280;51715;39.432;-77.518;2022-08-14T06:30:47;99795.10;;;22.18;42.32
65013;BME280;51715;39.432;-77.518;2022-08-14T06:33:17;99792.85;;;22.19;42.22
65013;BME280;51715;39.432;-77.518;2022-08-14T06:35:47;99790.03;;;22.39;41.43
65013;BME280;51715;39.432;-77.518;2022-08-14T06:38:17;99792.57;;;22.47;41.33
65013;BME280;51715;39.432;-77.518;2022-08-14T06:40:47;99791.42;;;22.12;41.51
65013;BME280;51715;39.432;-77.518;2022-08-14T06:43:16;99790.82;;;22.32;41.58
65013;BME280;51715;39.432;-77.518;2022-08-14T06:45:47;99790.89;;;22.23;41.44
65013;BME280;51715;39.432;-77.518;2022-08-14T06:48:17;99784.56;;;22.35;41.75
65013;BME280;51715;39.432;-77.518;2022-08-14T06:50:47;99785.94;;;22.15;42.40
65013;BME280;51715;39.432;-77.518;2022-08-14T06:53:16;99782.14;;;22.20;42.00
65013;BME280;51715;39.432;-77.518;2022-08-14T06:55:45;99775.90;;;22.00;41.67
65013;BME280;51715;39.432;-77.518;2022-08-14T06:58:16;99769.02;;;22.06;41.91
65013;BME280;51715;39.432;-77.518;2022-08-14T07:00:45;99766.18;;;22.00;41.73
65013;BME280;51715;39.432;-77.518;2022-08-14T07:03:14;99762.16;;;21.76;42.05
65013;BME280;51715;39.432;-77.518;2022-08-14T07:05:42;99756.27;;;22.24;41.79
65013;BME280;51715;39.432;-77.518;2022-08-14T07:08:12;99753.90;;;22.11;41.72
65013;BME280;51715;39.432;-77.518;2022-08-14T07:10:41;99753.50;;;22.29;41.51
65013;BME280;51715;39.432;-77.518;2022-08-14T07:13:10;99749.22;;;22.41;41.57
65013;BME280;51715;39.432;-77.518;2022-08-14T07:15:39;99746.30;;;22.08;42.78
65013;BME280;51715;39.432;-77.518;2022-08-14T07:18:08;99742.22;;;22.49;42.88
65013;BME280;51715;39.432;-77.518;2022-08-14T07:20:38;99735.10;;;22.16;42.45
65013;BME280;51715;39.432;-77.518;2022-08-14T07:23:08;99731.20;;;22.01;42.08
65013;BME280;51715;39.432;-77.518;2022-08-14T07:25:39;99727.85;;;22.39;41.75
65013;BME280;51715;39.432;-77.518;2022-08-14T07:28:11;99722.04;;;22.30;41.24
65013;BME280;51715;39.432;-77.518;2022-08-14T07:30:40;99715.80;;;22.36;41.58
65013;BME280;51715;39.432;-77.518;2022-08-14T07:33:09;99715.10;;;22.55;41.97
65013;BME280;51715;39.432;-77.518;2022-08-14T07:35:39;99718.55;;;22.54;41.65
65013;BME280;51715;39.432;-77.518;2022-08-14T07:38:15;99723.65;;;22.41;41.25
65013;BME280;51715;39.432;-77.518;2022-08-14T07:40:43;99720.99;;;22.70;41.47
65013;BME280;51715;39.432;-77.518;2022-08-14T07:43:11;99724.76;;;22.60;40.87
65013;BME280;51715;39.432;-77.518;2022-08-14T07:45:40;99726.39;;;22.42;40.67
65013;BME280;51715;39.432;-77.518;2022-08-14T07:48:08;99732.66;;;22.81;41.06
65013;BME280;51715;39.432;-77.518;2022-08-14T07:50:37;99739.42;;;22.35;42.24
65013;BME280;51715;39.432;-77.518;2022-08-14T07:53:05;99734.64;;;22.41;42.62
65013;BME280;51715;39.432;-77.518;2022-08-14T07:55:34;99735.84;;;21.93;42.50
65013;BME280;51715;39.432;-77.518;2022-08-14T07:58:03;99736.10;;;22.29;42.36
65013;BME280;51715;39.432;-77.518;2022-08-14T08:00:30;99732.08;;;22.17;42.12
65013;BME280;51715;39.432;-77.518;2022-08-14T08:02:59;99732.05;;;22.29;42.05
65013;BME280;51715;39.432;-77.518;2022-08-14T08:05:28;99729.62;;;22.23;42.46
65013;BME280;51715;39.432;-77.518;2022-08-14T08:07:56;99726.52;;;22.11;42.38
65013;BME280;51715;39.432;-77.518;2022-08-14T08:10:25;99725.97;;;22.32;41.98
65013;BME280;51715;39.432;-77.518;2022-08-14T08:12:54;99725.67;;;22.32;41.77
65013;BME280;51715;39.432;-77.518;2022-08-14T08:15:23;99727.66;;;21.75;42.42
65013;BME280;51715;39.432;-77.518;2022-08-14T08:17:52;99730.58;;;22.08;41.91
65013;BME280;51715;39.432;-77.518;2022-08-14T08:20:23;99730.40;;;22.19;41.60
65013;BME280;51715;39.432;-77.518;2022-08-14T08:22:52;99728.76;;;22.02;41.80
65013;BME280;51715;39.432;-77.518;2022-08-14T08:25:22;99725.95;;;22.12;41.87
65013;BME280;51715;39.432;-77.518;2022-08-14T08:27:59;99724.32;;;22.32;42.29
65013;BME280;51715;39.432;-77.518;2022-08-14T08:30:31;99716.58;;;22.42;42.10
65013;BME280;51715;39.432;-77.518;2022-08-14T08:33:00;99717.41;;;22.01;42.07
65013;BME280;51715;39.432;-77.518;2022-08-14T08:35:31;99716.70;;;22.36;42.06
65013;BME280;51715;39.432;-77.518;2022-08-14T08:38:04;99719.67;;;22.35;42.36
65013;BME280;51715;39.432;-77.518;2022-08-14T08:40:33;99716.79;;;22.09;42.41
65013;BME280;51715;39.432;-77.518;2022-08-14T08:43:02;99719.28;;;22.44;42.50
65013;BME280;51715;39.432;-77.518;2022-08-14T08:45:31;99723.80;;;22.12;42.39
65013;BME280;51715;39.432;-77.518;2022-08-14T08:47:59;99727.55;;;22.32;41.75
65013;BME280;51715;39.432;-77.518;2022-08-14T08:50:31;99730.18;;;22.38;42.46
65013;BME280;51715;39.432;-77.518;2022-08-14T08:53:02;99729.28;;;22.17;42.42
65013;BME280;51715;39.432;-77.518;2022-08-14T08:55:33;99733.07;;;22.23;41.91
65013;BME280;51715;39.432;-77.518;2022-08-14T08:58:05;99731.18;;;22.33;42.18
65013;BME280;51715;39.432;-77.518;2022-08-14T09:00:36;99726.36;;;21.92;42.04
65013;BME280;51715;39.432;-77.518;2022-08-14T09:03:07;99723.63;;;21.98;42.36
65013;BME280;51715;39.432;-77.518;2022-08-14T09:05:37;99724.78;;;21.66;42.97
65013;BME280;51715;39.432;-77.518;2022-08-14T09:08:12;99725.12;;;21.71;43.09
65013;BME280;51715;39.432;-77.518;2022-08-14T09:10:40;99725.15;;;21.81;42.88
65013;BME280;51715;39.432;-77.518;2022-08-14T09:13:08;99729.37;;;21.83;43.24
65013;BME280;51715;39.432;-77.518;2022-08-14T09:15:38;99729.18;;;21.73;42.97
65013;BME280;51715;39.432;-77.518;2022-08-14T09:18:08;99724.86;;;21.56;42.43
65013;BME280;51715;39.432;-77.518;2022-08-14T09:20:38;99721.10;;;21.85;42.26
65013;BME280;51715;39.432;-77.518;2022-08-14T09:23:07;99723.25;;;21.53;42.86
65013;BME280;51715;39.432;-77.518;2022-08-14T09:25:36;99722.46;;;21.37;43.37
65013;BME280;51715;39.432;-77.518;2022-08-14T09:28:06;99720.43;;;21.47;43.25
65013;BME280;51715;39.432;-77.518;2022-08-14T09:30:37;99710.87;;;20.19;46.18
65013;BME280;51715;39.432;-77.518;2022-08-14T09:33:26;99711.71;;;20.25;46.19
65013;BME280;51715;39.432;-77.518;2022-08-14T09:36:20;99719.67;;;20.71;45.08
65013;BME280;51715;39.432;-77.518;2022-08-14T09:39:03;99724.41;;;21.21;44.13
65013;BME280;51715;39.432;-77.518;2022-08-14T09:41:39;99726.11;;;21.12;43.55
65013;BME280;51715;39.432;-77.518;2022-08-14T09:44:19;99728.80;;;21.19;43.44
65013;BME280;51715;39.432;-77.518;2022-08-14T09:46:55;99729.35;;;20.99;43.38
65013;BME280;51715;39.432;-77.518;2022-08-14T09:49:32;99724.94;;;21.16;43.21
65013;BME280;51715;39.432;-77.518;2022-08-14T09:52:06;99728.75;;;20.75;44.14
65013;BME280;51715;39.432;-77.518;2022-08-14T09:54:38;99730.24;;;20.91;43.69
65013;BME280;51715;39.432;-77.518;2022-08-14T09:57:06;99732.88;;;20.95;43.68
65013;BME280;51715;39.432;-77.518;2022-08-14T09:59:40;99737.34;;;20.93;43.66
65013;BME280;51715;39.432;-77.518;2022-08-14T10:02:25;99737.13;;;20.84;43.58
65013;BME280;51715;39.432;-77.518;2022-08-14T10:05:02;99739.53;;;20.76;43.74
65013;BME280;51715;39.432;-77.518;2022-08-14T10:07:32;99745.80;;;20.82;43.60
65013;BME280;51715;39.432;-77.518;2022-08-14T10:10:01;99743.30;;;21.10;43.21
65013;BME280;51715;39.432;-77.518;2022-08-14T10:12:47;99747.18;;;21.01;43.27
65013;BME280;51715;39.432;-77.518;2022-08-14T10:15:17;99751.93;;;20.39;43.92
65013;BME280;51715;39.432;-77.518;2022-08-14T10:17:48;99752.73;;;20.25;44.10
65013;BME280;51715;39.432;-77.518;2022-08-14T10:20:16;99752.67;;;20.38;43.79
65013;BME280;51715;39.432;-77.518;2022-08-14T10:22:44;99755.99;;;20.70;43.56
65013;BME280;51715;39.432;-77.518;2022-08-14T10:25:14;99761.05;;;20.39;43.62
65013;BME280;51715;39.432;-77.518;2022-08-14T10:27:44;99761.72;;;20.44;43.52
65013;BME280;51715;39.432;-77.518;2022-08-14T10:30:15;99761.08;;;20.70;43.87
65013;BME280;51715;39.432;-77.518;2022-08-14T10:32:44;99763.15;;;20.37;44.09
65013;BME280;51715;39.432;-77.518;2022-08-14T10:35:14;99764.68;;;20.27;43.79
65013;BME280;51715;39.432;-77.518;2022-08-14T10:37:45;99764.31;;;20.86;43.37
65013;BME280;51715;39.432;-77.518;2022-08-14T10:40:15;99758.97;;;20.37;43.70
65013;BME280;51715;39.432;-77.518;2022-08-14T10:42:43;99758.26;;;20.35;43.66
65013;BME280;51715;39.432;-77.518;2022-08-14T10:45:22;99761.59;;;20.50;43.71
65013;BME280;51715;39.432;-77.518;2022-08-14T10:47:51;99759.61;;;20.25;44.07
65013;BME280;51715;39.432;-77.518;2022-08-14T10:50:29;99756.85;;;20.21;44.59
65013;BME280;51715;39.432;-77.518;2022-08-14T10:52:59;99759.83;;;19.29;46.25
65013;BME280;51715;39.432;-77.518;2022-08-14T10:55:33;99758.56;;;19.49;46.00
65013;BME280;51715;39.432;-77.518;2022-08-14T10:58:02;99754.90;;;20.09;45.10
65013;BME280;51715;39.432;-77.518;2022-08-14T11:00:30;99756.59;;;20.29;44.21
65013;BME280;51715;39.432;-77.518;2022-08-14T11:03:00;99755.86;;;20.33;43.99
65013;BME280;51715;39.432;-77.518;2022-08-14T11:05:39;99756.43;;;20.11;43.79
65013;BME280;51715;39.432;-77.518;2022-08-14T11:08:08;99758.72;;;19.98;43.54
65013;BME280;51715;39.432;-77.518;2022-08-14T11:10:42;99761.23;;;20.05;43.63
65013;BME280;51715;39.432;-77.518;2022-08-14T11:13:16;99765.67;;;20.62;43.67
65013;BME280;51715;39.432;-77.518;2022-08-14T11:15:44;99763.99;;;20.47;43.49
65013;BME280;51715;39.432;-77.518;2022-08-14T11:18:13;99765.40;;;20.31;43.72
65013;BME280;51715;39.432;-77.518;2022-08-14T11:20:49;99763.40;;;20.37;43.57
65013;BME280;51715;39.432;-77.518;2022-08-14T11:23:21;99763.14;;;20.47;43.48
65013;BME280;51715;39.432;-77.518;2022-08-14T11:25:50;99761.40;;;20.52;43.33
65013;BME280;51715;39.432;-77.518;2022-08-14T11:28:23;99761.75;;;20.52;43.82
65013;BME280;51715;39.432;-77.518;2022-08-14T11:30:52;99756.88;;;20.73;43.59
65013;BME280;51715;39.432;-77.518;2022-08-14T11:33:22;99759.53;;;20.85;43.27
65013;BME280;51715;39.432;-77.518;2022-08-14T11:35:51;99756.69;;;20.92;43.12
65013;BME280;51715;39.432;-77.518;2022-08-14T11:38:19;99750.23;;;20.97;43.01
65013;BME280;51715;39.432;-77.518;2022-08-14T11:40:48;99745.36;;;20.82;43.01
65013;BME280;51715;39.432;-77.518;2022-08-14T11:43:17;99741.21;;;21.15;42.85
65013;BME280;51715;39.432;-77.518;2022-08-14T11:45:46;99739.95;;;21.12;43.31
65013;BME280;51715;39.432;-77.518;2022-08-14T11:48:17;99737.29;;;21.26;43.41
65013;BME280;51715;39.432;-77.518;2022-08-14T11:50:47;99737.54;;;21.62;43.22
65013;BME280;51715;39.432;-77.518;2022-08-14T11:53:21;99740.14;;;21.28;44.00
65013;BME280;51715;39.432;-77.518;2022-08-14T11:55:56;99741.13;;;21.28;43.27
65013;BME280;51715;39.432;-77.518;2022-08-14T11:58:27;99737.31;;;21.51;42.48
65013;BME280;51715;39.432;-77.518;2022-08-14T12:00:58;99738.71;;;21.44;42.14
65013;BME280;51715;39.432;-77.518;2022-08-14T12:03:42;99737.52;;;21.59;42.13
65013;BME280;51715;39.432;-77.518;2022-08-14T12:06:12;99738.04;;;21.76;41.94
65013;BME280;51715;39.432;-77.518;2022-08-14T12:08:41;99738.08;;;21.96;41.81
65013;BME280;51715;39.432;-77.518;2022-08-14T12:11:13;99740.75;;;22.15;41.93
65013;BME280;51715;39.432;-77.518;2022-08-14T12:13:43;99744.75;;;21.89;41.72
65013;BME280;51715;39.432;-77.518;2022-08-14T12:16:13;99745.47;;;22.30;41.99
65013;BME280;51715;39.432;-77.518;2022-08-14T12:18:42;99751.82;;;22.76;42.01
65013;BME280;51715;39.432;-77.518;2022-08-14T12:21:12;99754.34;;;22.72;40.94
65013;BME280;51715;39.432;-77.518;2022-08-14T12:23:41;99751.93;;;22.70;40.69
65013;BME280;51715;39.432;-77.518;2022-08-14T12:26:16;99755.42;;;22.89;41.09
65013;BME280;51715;39.432;-77.518;2022-08-14T12:28:47;99758.88;;;22.64;40.70
65013;BME280;51715;39.432;-77.518;2022-08-14T12:31:18;99763.12;;;23.36;40.12
65013;BME280;51715;39.432;-77.518;2022-08-14T12:33:56;99761.05;;;23.24;39.88
65013;BME280;51715;39.432;-77.518;2022-08-14T12:36:25;99755.65;;;23.46;39.94
65013;BME280;51715;39.432;-77.518;2022-08-14T12:38:54;99754.92;;;23.74;39.95
65013;BME280;51715;39.432;-77.518;2022-08-14T12:41:24;99758.03;;;23.73;39.69
65013;BME280;51715;39.432;-77.518;2022-08-14T12:43:54;99755.82;;;24.09;40.10
65013;BME280;51715;39.432;-77.518;2022-08-14T12:46:27;99755.55;;;24.00;40.30
65013;BME280;51715;39.432;-77.518;2022-08-14T12:48:57;99749.80;;;24.29;39.79
65013;BME280;51715;39.432;-77.518;2022-08-14T12:51:27;99746.72;;;24.49;39.83
65013;BME280;51715;39.432;-77.518;2022-08-14T12:53:56;99744.40;;;24.60;39.66
65013;BME280;51715;39.432;-77.518;2022-08-14T12:56:25;99739.37;;;24.62;39.65
65013;BME280;51715;39.432;-77.518;2022-08-14T12:58:57;99737.75;;;24.57;37.48